Deckerville, Washington
Current Conditions -  °F | °C
As of 8:31 AM on Monday 22 Dec 2014 (Local Time) from KSHN Reporting Station
Haze Haze  
Wind Chill: 37°   Ceiling: 1700
Heat Index: 37°   Visibility: 3mi
Dew Point: 35°   Wind: 3mph
Humidity: 93%   Direction: 20°NNE
Pressure: 30.3"   Gusts: NA
Location:  46.9859°N, 123.385°W
Report Text: KSHN 221631Z AUTO 02003KT 3SM BR BKN017 03/02 A3030 RMK AO2 T00280017
Loading
Personal Weather Stations






























Interactive Weather Map New forecast layout! Learn more

10-Day Weather Forecast

Advertisements
Track Severe Weather on mobile